createdAt,value
2018-12-05T00:00:48.405Z,11.27
2018-12-05T00:03:15.959Z,11.50
2018-12-05T00:05:43.515Z,7.40
2018-12-05T00:08:11.085Z,8.53
2018-12-05T00:10:38.637Z,6.60
2018-12-05T00:13:06.136Z,10.70
2018-12-05T00:15:33.629Z,8.50
2018-12-05T00:18:01.232Z,9.23
2018-12-05T00:20:28.771Z,9.57
2018-12-05T00:22:56.353Z,10.17
2018-12-05T00:25:23.860Z,13.30
2018-12-05T00:27:51.352Z,11.93
2018-12-05T00:30:18.849Z,9.20
2018-12-05T00:32:46.337Z,11.23
2018-12-05T00:35:13.845Z,9.07
2018-12-05T00:37:41.399Z,8.63
2018-12-05T00:40:08.912Z,13.27
2018-12-05T00:42:36.430Z,10.90
2018-12-05T00:45:05.036Z,9.33
2018-12-05T00:47:32.543Z,7.50
2018-12-05T00:50:00.046Z,11.20
2018-12-05T00:52:27.566Z,9.43
2018-12-05T00:54:55.075Z,10.97
2018-12-05T00:57:22.611Z,9.27
2018-12-05T00:59:50.682Z,10.83
2018-12-05T01:02:18.202Z,9.17
2018-12-05T01:04:45.811Z,7.10
2018-12-05T01:07:13.371Z,7.97
2018-12-05T01:09:40.915Z,9.47
2018-12-05T01:12:09.551Z,8.00
2018-12-05T01:14:37.088Z,14.47
2018-12-05T01:17:04.633Z,8.07
2018-12-05T01:19:32.134Z,8.90
2018-12-05T01:21:59.647Z,9.10
2018-12-05T01:24:27.150Z,8.33
2018-12-05T01:26:54.694Z,8.17
2018-12-05T01:29:22.177Z,9.80
2018-12-05T01:31:49.688Z,6.90
2018-12-05T01:34:17.214Z,7.43
2018-12-05T01:36:44.836Z,9.03
2018-12-05T01:39:12.402Z,6.13
2018-12-05T01:41:39.925Z,12.27
2018-12-05T01:44:07.451Z,6.73
2018-12-05T01:46:34.967Z,11.93
2018-12-05T01:49:02.467Z,9.33
2018-12-05T01:51:29.970Z,14.50
2018-12-05T01:53:57.540Z,9.30
2018-12-05T01:56:25.162Z,6.37
2018-12-05T01:58:52.760Z,8.23
2018-12-05T02:01:20.327Z,11.07
2018-12-05T02:03:47.882Z,8.27
2018-12-05T02:06:15.383Z,11.23
2018-12-05T02:08:42.995Z,10.33
2018-12-05T02:11:10.511Z,10.20
2018-12-05T02:13:38.071Z,9.20
2018-12-05T02:16:05.599Z,6.67
2018-12-05T02:18:33.153Z,8.30
2018-12-05T02:21:00.665Z,12.87
2018-12-05T02:23:28.212Z,9.43
2018-12-05T02:25:55.731Z,7.83
2018-12-05T02:28:23.234Z,11.27
2018-12-05T02:30:50.741Z,7.60
2018-12-05T02:33:18.237Z,11.37
2018-12-05T02:35:45.762Z,12.67
2018-12-05T02:38:13.255Z,8.30
2018-12-05T02:40:40.847Z,6.93
2018-12-05T02:43:08.342Z,6.47
2018-12-05T02:45:35.906Z,9.07
2018-12-05T02:48:03.405Z,11.80
2018-12-05T02:50:30.926Z,9.20
2018-12-05T02:52:58.458Z,14.07
2018-12-05T02:55:26.036Z,10.30
2018-12-05T02:57:53.538Z,9.30
2018-12-05T03:00:21.060Z,8.97
2018-12-05T03:02:48.631Z,10.93
2018-12-05T03:05:16.198Z,11.07
2018-12-05T03:07:43.701Z,9.97
2018-12-05T03:10:11.319Z,7.13
2018-12-05T03:12:38.882Z,10.70
2018-12-05T03:15:06.391Z,6.70
2018-12-05T03:17:33.897Z,8.27
2018-12-05T03:20:01.417Z,9.27
2018-12-05T03:22:29.852Z,6.30
2018-12-05T03:24:57.505Z,10.60
2018-12-05T03:27:25.093Z,11.67
2018-12-05T03:29:52.635Z,8.83
2018-12-05T03:32:20.158Z,6.80
2018-12-05T03:34:47.667Z,10.33
2018-12-05T03:37:15.179Z,7.77
2018-12-05T03:39:42.685Z,11.73
2018-12-05T03:42:10.423Z,9.03
2018-12-05T03:44:38.212Z,10.93
2018-12-05T03:47:05.753Z,9.57
2018-12-05T03:49:33.296Z,11.57
2018-12-05T03:52:00.820Z,14.50
2018-12-05T03:54:28.328Z,19.57
2018-12-05T03:56:55.899Z,17.57
2018-12-05T03:59:23.448Z,14.03
2018-12-05T04:01:51.018Z,13.27
2018-12-05T04:04:18.598Z,13.07
2018-12-05T04:06:46.146Z,10.87
2018-12-05T04:09:13.666Z,11.93
2018-12-05T04:11:41.221Z,13.83
2018-12-05T04:14:08.779Z,14.10
2018-12-05T04:16:36.281Z,14.07
2018-12-05T04:19:03.841Z,12.17
2018-12-05T04:21:31.339Z,13.57
2018-12-05T04:23:58.837Z,14.80
2018-12-05T04:26:26.343Z,9.37
2018-12-05T04:28:53.877Z,14.73
2018-12-05T04:31:21.356Z,14.13
2018-12-05T04:33:48.895Z,10.97
2018-12-05T04:36:16.372Z,12.53
2018-12-05T04:38:43.907Z,13.37
2018-12-05T04:41:11.408Z,15.40
2018-12-05T04:43:38.913Z,10.50
2018-12-05T04:46:06.402Z,12.50
2018-12-05T04:48:33.941Z,14.40
2018-12-05T04:51:01.510Z,11.43
2018-12-05T04:53:29.078Z,12.70
2018-12-05T04:55:56.618Z,19.30
2018-12-05T04:58:24.111Z,12.43
2018-12-05T05:00:51.633Z,20.07
2018-12-05T05:03:19.193Z,18.77
2018-12-05T05:05:46.683Z,12.97
2018-12-05T05:08:14.235Z,13.57
2018-12-05T05:10:41.802Z,12.10
2018-12-05T05:13:09.299Z,13.40
2018-12-05T05:15:36.782Z,9.47
2018-12-05T05:18:04.358Z,13.53
2018-12-05T05:20:31.835Z,17.23
2018-12-05T05:22:59.329Z,14.30
2018-12-05T05:25:26.817Z,12.93
2018-12-05T05:27:54.399Z,11.10
2018-12-05T05:30:21.873Z,12.23
2018-12-05T05:32:51.297Z,14.67
2018-12-05T05:35:18.834Z,13.03
2018-12-05T05:37:46.373Z,13.93
2018-12-05T05:40:13.937Z,13.07
2018-12-05T05:42:41.931Z,11.10
2018-12-05T05:45:09.477Z,15.33
2018-12-05T05:47:36.966Z,20.53
2018-12-05T05:50:07.568Z,19.90
2018-12-05T05:52:35.121Z,16.57
2018-12-05T05:55:02.683Z,23.63
2018-12-05T05:57:30.253Z,15.93
2018-12-05T05:59:57.803Z,24.23
2018-12-05T06:02:25.389Z,21.93
2018-12-05T06:04:52.903Z,20.30
2018-12-05T06:07:20.376Z,18.93
2018-12-05T06:09:47.963Z,20.40
2018-12-05T06:12:15.470Z,15.20
2018-12-05T06:14:42.964Z,17.40
2018-12-05T06:17:10.455Z,15.20
2018-12-05T06:19:37.983Z,18.57
2018-12-05T06:22:05.478Z,18.37
2018-12-05T06:24:33.034Z,14.30
2018-12-05T06:27:00.580Z,18.20
2018-12-05T06:29:28.040Z,19.40
2018-12-05T06:31:55.550Z,19.83
2018-12-05T06:34:23.075Z,15.00
2018-12-05T06:36:50.561Z,15.83
2018-12-05T06:39:18.027Z,15.00
2018-12-05T06:41:45.629Z,20.73
2018-12-05T06:44:13.189Z,19.47
2018-12-05T06:46:40.685Z,21.60
2018-12-05T06:49:08.152Z,22.43
2018-12-05T06:51:35.659Z,23.93
2018-12-05T06:54:03.188Z,22.40
2018-12-05T06:56:30.719Z,18.97
2018-12-05T06:58:58.199Z,16.07
2018-12-05T07:01:25.834Z,19.03
2018-12-05T07:03:53.473Z,22.80
2018-12-05T07:06:21.139Z,23.50
2018-12-05T07:08:48.714Z,19.67
2018-12-05T07:11:16.200Z,22.10
2018-12-05T07:13:43.738Z,19.23
2018-12-05T07:16:11.216Z,22.67
2018-12-05T07:18:38.718Z,29.60
2018-12-05T07:21:06.212Z,22.27
2018-12-05T07:23:33.724Z,23.67
2018-12-05T07:26:01.230Z,19.67
2018-12-05T07:28:28.748Z,23.93
2018-12-05T07:30:56.247Z,17.97
2018-12-05T07:33:23.762Z,25.83
2018-12-05T07:35:51.238Z,25.27
2018-12-05T07:38:19.522Z,25.97
2018-12-05T07:40:47.417Z,24.17
2018-12-05T07:43:14.990Z,27.63
2018-12-05T07:45:42.534Z,24.12
2018-12-05T07:48:10.041Z,23.77
2018-12-05T07:50:37.517Z,22.17
2018-12-05T07:53:05.094Z,22.63
2018-12-05T07:55:32.677Z,19.70
2018-12-05T07:58:00.157Z,29.40
2018-12-05T08:00:27.637Z,23.03
2018-12-05T08:02:55.153Z,26.57
2018-12-05T08:05:22.680Z,25.93
2018-12-05T08:07:50.155Z,23.07
2018-12-05T08:10:17.639Z,24.27
2018-12-05T08:12:45.179Z,21.47
2018-12-05T08:15:12.737Z,23.13
2018-12-05T08:17:40.239Z,21.33
2018-12-05T08:20:07.748Z,24.97
2018-12-05T08:22:35.246Z,24.83
2018-12-05T08:25:02.758Z,21.63
2018-12-05T08:27:30.296Z,17.47
2018-12-05T08:29:57.809Z,20.33
2018-12-05T08:32:25.350Z,17.30
2018-12-05T08:34:52.973Z,15.40
2018-12-05T08:37:20.485Z,20.03
2018-12-05T08:39:47.974Z,19.17
2018-12-05T08:42:15.463Z,17.43
2018-12-05T08:44:43.027Z,20.33
2018-12-05T08:47:10.511Z,18.00
2018-12-05T08:49:38.037Z,20.27
2018-12-05T08:52:05.569Z,19.63
2018-12-05T08:54:33.120Z,20.37
2018-12-05T08:57:00.761Z,19.83
2018-12-05T08:59:28.302Z,19.47
2018-12-05T09:01:55.900Z,17.27
2018-12-05T09:04:23.462Z,13.20
2018-12-05T09:06:50.977Z,15.57
2018-12-05T09:09:18.474Z,16.33
2018-12-05T09:11:46.080Z,16.40
2018-12-05T09:14:13.593Z,18.60
2018-12-05T09:16:41.085Z,15.53
2018-12-05T09:19:08.617Z,19.13
2018-12-05T09:21:36.121Z,17.53
2018-12-05T09:24:03.620Z,17.27
2018-12-05T09:26:31.189Z,16.27
2018-12-05T09:28:58.748Z,16.47
2018-12-05T09:31:26.322Z,13.37
2018-12-05T09:33:53.826Z,20.03
2018-12-05T09:36:21.330Z,18.30
2018-12-05T09:38:48.837Z,14.87
2018-12-05T09:41:16.326Z,16.90
2018-12-05T09:43:43.843Z,17.97
2018-12-05T09:46:11.444Z,19.13
2018-12-05T09:48:38.921Z,16.27
2018-12-05T09:51:06.466Z,15.40
2018-12-05T09:53:33.962Z,15.93
2018-12-05T09:56:01.447Z,20.23
2018-12-05T09:58:28.916Z,19.23
2018-12-05T10:00:56.416Z,17.33
2018-12-05T10:03:23.910Z,19.47
2018-12-05T10:05:51.564Z,14.87
2018-12-05T10:08:19.069Z,16.03
2018-12-05T10:10:46.562Z,15.47
2018-12-05T10:13:14.080Z,15.47
2018-12-05T10:15:41.587Z,16.20
2018-12-05T10:18:09.170Z,18.30
2018-12-05T10:20:36.655Z,16.53
2018-12-05T10:23:04.182Z,16.83
2018-12-05T10:25:31.746Z,14.20
2018-12-05T10:27:59.242Z,16.47
2018-12-05T10:30:26.825Z,11.73
2018-12-05T10:32:54.325Z,17.10
2018-12-05T10:35:21.869Z,14.73
2018-12-05T10:37:49.446Z,12.90
2018-12-05T10:40:16.931Z,13.30
2018-12-05T10:42:44.449Z,23.10
2018-12-05T10:45:11.946Z,14.80
2018-12-05T10:47:39.489Z,17.07
2018-12-05T10:50:07.049Z,19.60
2018-12-05T10:52:34.558Z,10.80
2018-12-05T10:55:02.080Z,12.23
2018-12-05T10:57:29.577Z,15.90
2018-12-05T10:59:57.067Z,16.87
2018-12-05T11:02:30.377Z,12.23
2018-12-05T11:05:03.743Z,11.80
2018-12-05T11:07:36.851Z,13.40
2018-12-05T11:10:10.291Z,13.67
2018-12-05T11:12:41.603Z,12.50
2018-12-05T11:15:14.862Z,11.40
2018-12-05T11:17:44.264Z,15.93
2018-12-05T11:23:19.113Z,10.13
2018-12-05T11:25:46.609Z,12.50
2018-12-05T11:28:14.197Z,16.73
2018-12-05T11:30:41.697Z,11.97
2018-12-05T11:33:09.202Z,15.50
2018-12-05T11:35:36.726Z,13.73
2018-12-05T11:38:04.233Z,14.57
2018-12-05T11:40:31.794Z,13.57
2018-12-05T11:42:59.290Z,15.10
2018-12-05T11:45:26.874Z,13.33
2018-12-05T11:47:54.370Z,16.80
2018-12-05T11:50:21.874Z,16.63
2018-12-05T11:52:49.354Z,14.57
2018-12-05T11:55:16.859Z,14.87
2018-12-05T11:57:44.392Z,9.20
2018-12-05T12:00:11.883Z,8.10
2018-12-05T12:02:39.360Z,16.90
2018-12-05T12:05:06.870Z,9.37
2018-12-05T12:07:34.358Z,9.60
2018-12-05T12:10:02.014Z,12.43
2018-12-05T12:12:35.152Z,9.07
2018-12-05T12:15:02.677Z,10.07
2018-12-05T12:17:30.162Z,9.63
2018-12-05T12:19:57.651Z,8.90
2018-12-05T12:22:25.444Z,11.50
2018-12-05T12:24:52.931Z,9.53
2018-12-05T12:27:20.471Z,11.03
2018-12-05T12:29:47.972Z,11.30
2018-12-05T12:32:15.487Z,10.73
2018-12-05T12:34:42.996Z,11.47
2018-12-05T12:37:10.492Z,11.63
2018-12-05T12:39:38.031Z,14.53
2018-12-05T12:42:05.536Z,13.67
2018-12-05T12:44:33.060Z,10.60
2018-12-05T12:47:00.642Z,9.17
2018-12-05T12:49:28.213Z,11.20
2018-12-05T12:51:55.735Z,12.40
2018-12-05T12:54:23.230Z,11.13
2018-12-05T12:56:50.777Z,6.77
2018-12-05T12:59:18.242Z,8.37
2018-12-05T13:01:45.757Z,10.07
2018-12-05T13:04:13.263Z,12.53
2018-12-05T13:06:40.783Z,7.00
2018-12-05T13:09:08.352Z,8.20
2018-12-05T13:11:35.867Z,8.43
2018-12-05T13:14:03.340Z,7.50
2018-12-05T13:16:31.014Z,9.07
2018-12-05T13:18:58.651Z,13.33
2018-12-05T13:21:26.134Z,8.13
2018-12-05T13:23:53.661Z,10.47
2018-12-05T13:26:21.164Z,6.80
2018-12-05T13:28:48.680Z,10.33
2018-12-05T13:31:16.200Z,7.07
2018-12-05T13:33:43.725Z,8.77
2018-12-05T13:36:11.395Z,9.77
2018-12-05T13:38:38.885Z,10.47
2018-12-05T13:41:06.477Z,10.30
2018-12-05T13:43:34.589Z,11.30
2018-12-05T13:46:02.267Z,11.60
2018-12-05T13:48:29.779Z,14.03
2018-12-05T13:50:57.784Z,7.83
2018-12-05T13:53:25.301Z,9.53
2018-12-05T13:55:52.789Z,9.23
2018-12-05T13:58:20.280Z,9.30
2018-12-05T14:00:47.775Z,8.33
2018-12-05T14:03:15.334Z,13.10
2018-12-05T14:05:42.893Z,11.00
2018-12-05T14:08:10.469Z,14.83
2018-12-05T14:10:38.059Z,11.47
2018-12-05T14:13:05.578Z,9.57
2018-12-05T14:15:33.089Z,12.43
2018-12-05T14:18:01.734Z,11.43
2018-12-05T14:20:30.112Z,18.03
2018-12-05T14:22:57.680Z,12.27
2018-12-05T14:25:25.246Z,9.13
2018-12-05T14:27:52.753Z,13.97
2018-12-05T14:30:20.248Z,15.70
2018-12-05T14:32:47.730Z,12.60
2018-12-05T14:35:15.212Z,14.03
2018-12-05T14:37:42.746Z,10.03
2018-12-05T14:40:10.221Z,11.90
2018-12-05T14:42:37.876Z,16.17
2018-12-05T14:45:05.575Z,10.37
2018-12-05T14:47:33.058Z,13.77
2018-12-05T14:50:00.549Z,10.10
2018-12-05T14:52:28.022Z,11.93
2018-12-05T14:54:55.509Z,16.60
2018-12-05T14:57:22.992Z,13.83
2018-12-05T14:59:50.484Z,13.77
2018-12-05T15:02:18.035Z,13.70
2018-12-05T15:04:45.541Z,11.60
2018-12-05T15:07:13.015Z,14.50
2018-12-05T15:09:40.619Z,14.30
2018-12-05T15:12:08.098Z,11.50
2018-12-05T15:14:35.627Z,14.57
2018-12-05T15:17:03.115Z,13.03
2018-12-05T15:19:30.602Z,16.60
2018-12-05T15:21:58.106Z,19.17
2018-12-05T15:24:25.674Z,11.27
2018-12-05T15:26:53.244Z,31.53
2018-12-05T15:29:20.817Z,14.10
2018-12-05T15:31:48.319Z,14.80
2018-12-05T15:34:15.947Z,15.43
2018-12-05T15:36:43.493Z,17.87
2018-12-05T15:39:11.002Z,16.37
2018-12-05T15:41:38.613Z,16.00
2018-12-05T15:44:06.172Z,15.10
2018-12-05T15:46:33.660Z,13.07
2018-12-05T15:49:01.189Z,11.30
2018-12-05T15:51:28.670Z,11.80
2018-12-05T15:53:56.150Z,12.83
2018-12-05T15:56:23.642Z,12.50
2018-12-05T15:58:51.489Z,11.20
2018-12-05T16:01:18.998Z,15.47
2018-12-05T16:03:46.470Z,12.67
2018-12-05T16:06:13.995Z,13.57
2018-12-05T16:08:41.490Z,10.23
2018-12-05T16:11:09.046Z,12.97
2018-12-05T16:13:36.596Z,14.77
2018-12-05T16:16:04.192Z,11.23
2018-12-05T16:18:31.706Z,12.43
2018-12-05T16:20:59.277Z,21.90
2018-12-05T16:23:26.776Z,14.93
2018-12-05T16:25:55.336Z,13.30
2018-12-05T16:28:23.099Z,12.27
2018-12-05T16:30:51.295Z,11.57
2018-12-05T16:33:18.858Z,13.60
2018-12-05T16:35:46.386Z,13.43
2018-12-05T16:38:13.871Z,15.37
2018-12-05T16:40:42.128Z,18.37
2018-12-05T16:43:09.677Z,15.27
2018-12-05T16:45:37.148Z,14.53
2018-12-05T16:48:04.680Z,18.70
2018-12-05T16:50:32.150Z,18.37
2018-12-05T16:52:59.627Z,17.77
2018-12-05T16:55:27.178Z,16.10
2018-12-05T16:57:54.725Z,19.20
2018-12-05T17:00:22.217Z,13.37
2018-12-05T17:02:49.710Z,16.07
2018-12-05T17:05:17.221Z,12.30
2018-12-05T17:07:44.742Z,10.23
2018-12-05T17:10:12.334Z,12.97
2018-12-05T17:12:40.013Z,13.93
2018-12-05T17:15:07.661Z,16.37
2018-12-05T17:17:35.153Z,12.87
2018-12-05T17:20:02.957Z,13.23
2018-12-05T17:22:30.429Z,17.30
2018-12-05T17:24:57.929Z,13.13
2018-12-05T17:27:25.417Z,14.33
2018-12-05T17:29:52.913Z,12.60
2018-12-05T17:32:20.488Z,13.77
2018-12-05T17:34:47.995Z,10.93
2018-12-05T17:37:15.590Z,17.13
2018-12-05T17:39:43.170Z,15.10
2018-12-05T17:42:10.731Z,13.50
2018-12-05T17:44:38.207Z,10.80
2018-12-05T17:47:05.698Z,13.53
2018-12-05T17:49:33.234Z,11.30
2018-12-05T17:52:00.788Z,12.70
2018-12-05T17:54:28.352Z,13.33
2018-12-05T17:56:55.837Z,15.87
2018-12-05T17:59:23.314Z,13.07
2018-12-05T18:01:50.858Z,15.20
2018-12-05T18:04:18.792Z,12.03
2018-12-05T18:06:46.351Z,17.53
2018-12-05T18:09:13.830Z,16.27
2018-12-05T18:11:41.306Z,17.13
2018-12-05T18:14:08.806Z,12.97
2018-12-05T18:16:36.286Z,14.43
2018-12-05T18:19:04.113Z,17.13
2018-12-05T18:21:31.606Z,16.03
2018-12-05T18:23:59.254Z,17.83
2018-12-05T18:26:26.862Z,13.93
2018-12-05T18:28:54.342Z,16.00
2018-12-05T18:31:21.911Z,16.90
2018-12-05T18:33:49.397Z,16.23
2018-12-05T18:36:16.886Z,14.53
2018-12-05T18:38:44.384Z,15.33
2018-12-05T18:41:11.888Z,16.67
2018-12-05T18:43:39.353Z,13.33
2018-12-05T18:46:06.986Z,11.43
2018-12-05T18:48:34.481Z,13.63
2018-12-05T18:51:01.999Z,16.33
2018-12-05T18:53:29.516Z,14.10
2018-12-05T18:55:57.017Z,10.23
2018-12-05T18:58:24.499Z,15.70
2018-12-05T19:00:52.995Z,14.23
2018-12-05T19:03:20.503Z,18.73
2018-12-05T19:05:48.011Z,11.03
2018-12-05T19:08:15.555Z,15.50
2018-12-05T19:10:43.085Z,14.10
2018-12-05T19:13:12.466Z,14.67
2018-12-05T19:15:40.025Z,13.47
2018-12-05T19:18:07.546Z,12.70
2018-12-05T19:20:35.274Z,11.17
2018-12-05T19:23:03.158Z,15.73
2018-12-05T19:25:30.739Z,13.23
2018-12-05T19:27:58.353Z,17.60
2018-12-05T19:30:25.879Z,11.57
2018-12-05T19:32:53.400Z,10.97
2018-12-05T19:35:20.898Z,13.17
2018-12-05T19:37:48.482Z,10.80
2018-12-05T19:40:15.973Z,15.40
2018-12-05T19:42:44.465Z,10.90
2018-12-05T19:45:11.965Z,16.00
2018-12-05T19:47:39.495Z,10.40
2018-12-05T19:50:07.280Z,9.07
2018-12-05T19:52:34.870Z,10.83
2018-12-05T19:55:02.379Z,12.80
2018-12-05T19:57:29.991Z,13.73
2018-12-05T19:59:57.493Z,13.07
2018-12-05T20:02:25.003Z,21.50
2018-12-05T20:04:52.512Z,14.23
2018-12-05T20:07:20.029Z,9.67
2018-12-05T20:09:47.539Z,11.53
2018-12-05T20:12:15.043Z,12.50
2018-12-05T20:14:42.541Z,15.07
2018-12-05T20:17:10.041Z,10.30
2018-12-05T20:19:37.671Z,11.13
2018-12-05T20:22:05.239Z,12.70
2018-12-05T20:24:32.783Z,14.33
2018-12-05T20:27:00.283Z,12.20
2018-12-05T20:29:27.794Z,15.20
2018-12-05T20:31:55.312Z,13.03
2018-12-05T20:34:22.820Z,12.57
2018-12-05T20:36:50.327Z,8.87
2018-12-05T20:39:25.729Z,12.03
2018-12-05T20:41:47.400Z,15.53
2018-12-05T20:44:14.990Z,10.70
2018-12-05T20:46:42.482Z,12.67
2018-12-05T20:49:10.047Z,9.93
2018-12-05T20:51:37.572Z,11.43
2018-12-05T20:54:05.142Z,12.03
2018-12-05T20:56:32.679Z,11.07
2018-12-05T20:59:00.236Z,10.60
2018-12-05T21:01:27.816Z,12.00
2018-12-05T21:03:55.575Z,12.17
2018-12-05T21:06:23.072Z,12.47
2018-12-05T21:08:50.620Z,13.37
2018-12-05T21:11:18.172Z,14.40
2018-12-05T21:13:45.674Z,11.37
2018-12-05T21:16:13.183Z,7.93
2018-12-05T21:18:40.693Z,10.60
2018-12-05T21:21:08.197Z,13.50
2018-12-05T21:23:35.787Z,11.07
2018-12-05T21:26:03.292Z,9.47
2018-12-05T21:28:31.093Z,8.03
2018-12-05T21:30:59.284Z,12.13
2018-12-05T21:33:26.767Z,12.30
2018-12-05T21:35:54.370Z,9.50
2018-12-05T21:38:21.893Z,9.63
2018-12-05T21:40:49.400Z,8.00
2018-12-05T21:43:16.934Z,10.27
2018-12-05T21:45:44.550Z,11.73
2018-12-05T21:48:12.039Z,7.73
2018-12-05T21:50:39.549Z,9.63
2018-12-05T21:53:07.048Z,9.83
2018-12-05T21:55:34.534Z,11.60
2018-12-05T21:58:02.002Z,9.47
2018-12-05T22:00:29.493Z,10.97
2018-12-05T22:02:57.005Z,11.73
2018-12-05T22:05:24.583Z,9.97
2018-12-05T22:07:52.077Z,9.83
2018-12-05T22:10:19.717Z,14.73
2018-12-05T22:12:47.385Z,10.40
2018-12-05T22:15:14.878Z,25.17
2018-12-05T22:17:42.429Z,14.00
2018-12-05T22:20:09.970Z,11.57
2018-12-05T22:22:37.446Z,8.93
2018-12-05T22:25:05.073Z,15.23
2018-12-05T22:27:32.598Z,11.67
2018-12-05T22:30:00.099Z,9.60
2018-12-05T22:32:27.589Z,10.47
2018-12-05T22:34:55.082Z,10.27
2018-12-05T22:37:22.654Z,12.13
2018-12-05T22:39:50.213Z,13.33
2018-12-05T22:42:17.711Z,11.33
2018-12-05T22:44:45.266Z,9.73
2018-12-05T22:47:12.758Z,9.27
2018-12-05T22:49:40.221Z,8.97
2018-12-05T22:52:07.717Z,13.03
2018-12-05T22:54:35.279Z,11.77
2018-12-05T22:57:11.418Z,12.50
2018-12-05T22:59:38.927Z,15.70
2018-12-05T23:02:06.489Z,11.70
2018-12-05T23:04:34.177Z,9.63
2018-12-05T23:07:01.662Z,11.37
2018-12-05T23:09:29.157Z,11.73
2018-12-05T23:11:56.724Z,11.97
2018-12-05T23:14:24.265Z,12.10
2018-12-05T23:16:52.041Z,14.70
2018-12-05T23:19:19.604Z,11.30
2018-12-05T23:21:47.213Z,13.13
2018-12-05T23:24:14.780Z,9.20
2018-12-05T23:26:42.349Z,10.10
2018-12-05T23:29:09.852Z,8.37
2018-12-05T23:31:37.397Z,9.73
2018-12-05T23:34:04.888Z,17.13
2018-12-05T23:36:32.399Z,9.27
2018-12-05T23:39:00.341Z,8.73
2018-12-05T23:41:27.871Z,8.23
2018-12-05T23:43:55.381Z,13.27
2018-12-05T23:46:22.857Z,9.50
2018-12-05T23:48:50.360Z,13.93
2018-12-05T23:51:17.902Z,9.80
2018-12-05T23:53:45.447Z,9.53
2018-12-05T23:56:13.006Z,7.83
2018-12-05T23:58:40.581Z,10.93
